createdAt,value
2018-02-24T00:00:29.623Z,8.47
2018-02-24T00:02:57.617Z,7.67
2018-02-24T00:05:25.587Z,7.47
2018-02-24T00:07:53.530Z,7.23
2018-02-24T00:10:21.492Z,7.83
2018-02-24T00:12:49.514Z,9.10
2018-02-24T00:15:17.533Z,6.13
2018-02-24T00:17:45.514Z,10.50
2018-02-24T00:20:13.615Z,6.90
2018-02-24T00:22:43.613Z,6.83
2018-02-24T00:25:11.616Z,8.20
2018-02-24T00:27:39.582Z,7.27
2018-02-24T00:30:07.606Z,6.33
2018-02-24T00:32:35.594Z,7.03
2018-02-24T00:35:03.607Z,7.33
2018-02-24T00:37:31.565Z,7.00
2018-02-24T00:39:59.623Z,6.97
2018-02-24T00:42:27.666Z,6.70
2018-02-24T00:44:55.590Z,6.93
2018-02-24T00:47:23.556Z,7.13
2018-02-24T00:49:51.606Z,6.77
2018-02-24T00:52:20.216Z,6.37
2018-02-24T00:54:48.167Z,6.37
2018-02-24T00:57:16.239Z,6.57
2018-02-24T00:59:44.217Z,7.80
2018-02-24T01:02:12.238Z,6.40
2018-02-24T01:04:40.340Z,6.83
2018-02-24T01:07:08.335Z,8.30
2018-02-24T01:09:36.238Z,7.93
2018-02-24T01:12:04.304Z,7.10
2018-02-24T01:14:32.319Z,8.70
2018-02-24T01:17:00.302Z,8.50
2018-02-24T01:19:28.252Z,8.13
2018-02-24T01:21:56.247Z,8.57
2018-02-24T01:24:24.226Z,8.77
2018-02-24T01:26:52.197Z,7.80
2018-02-24T01:29:20.159Z,7.93
2018-02-24T01:31:48.146Z,7.70
2018-02-24T01:34:16.123Z,9.47
2018-02-24T01:36:44.114Z,9.77
2018-02-24T01:39:12.162Z,9.77
2018-02-24T01:41:40.153Z,10.60
2018-02-24T01:44:08.169Z,8.80
2018-02-24T01:46:36.162Z,9.63
2018-02-24T01:49:04.116Z,9.37
2018-02-24T01:51:32.091Z,8.37
2018-02-24T01:54:00.434Z,8.73
2018-02-24T01:56:28.442Z,8.43
2018-02-24T01:58:56.481Z,8.50
2018-02-24T02:01:24.481Z,7.47
2018-02-24T02:03:52.443Z,7.93
2018-02-24T02:06:20.522Z,8.27
2018-02-24T02:08:48.578Z,8.03
2018-02-24T02:11:16.599Z,8.50
2018-02-24T02:13:44.565Z,8.90
2018-02-24T02:16:12.547Z,8.63
2018-02-24T02:18:40.477Z,8.33
2018-02-24T02:21:08.425Z,7.47
2018-02-24T02:23:36.421Z,8.30
2018-02-24T02:26:04.469Z,6.27
2018-02-24T02:28:32.575Z,8.40
2018-02-24T02:31:00.612Z,8.03
2018-02-24T02:33:28.609Z,7.17
2018-02-24T02:35:56.536Z,7.53
2018-02-24T02:38:24.555Z,8.00
2018-02-24T02:40:52.580Z,8.10
2018-02-24T02:43:20.560Z,6.90
2018-02-24T02:45:48.535Z,7.30
2018-02-24T02:48:17.360Z,7.10
2018-02-24T02:50:45.300Z,8.63
2018-02-24T02:53:13.219Z,7.90
2018-02-24T02:55:41.684Z,7.73
2018-02-24T02:58:09.584Z,7.30
2018-02-24T03:00:37.616Z,7.03
2018-02-24T03:03:05.525Z,5.93
2018-02-24T03:05:33.443Z,7.37
2018-02-24T03:08:01.528Z,8.23
2018-02-24T03:10:29.538Z,8.57
2018-02-24T03:12:57.529Z,7.60
2018-02-24T03:15:25.614Z,7.90
2018-02-24T03:17:53.622Z,8.20
2018-02-24T03:20:21.618Z,9.20
2018-02-24T03:22:49.628Z,7.77
2018-02-24T03:25:17.562Z,9.20
2018-02-24T03:27:45.509Z,8.80
2018-02-24T03:30:13.448Z,10.33
2018-02-24T03:32:41.450Z,9.00
2018-02-24T03:35:09.362Z,9.63
2018-02-24T03:37:37.322Z,10.33
2018-02-24T03:40:05.316Z,10.33
2018-02-24T03:42:33.354Z,11.90
2018-02-24T03:45:01.388Z,11.03
2018-02-24T03:47:29.460Z,9.30
2018-02-24T03:49:57.529Z,10.13
2018-02-24T03:52:25.753Z,11.23
2018-02-24T03:54:53.669Z,11.43
2018-02-24T03:57:21.936Z,11.33
2018-02-24T03:59:49.964Z,11.33
2018-02-24T04:02:17.974Z,10.87
2018-02-24T04:04:46.022Z,12.77
2018-02-24T04:07:14.172Z,12.60
2018-02-24T04:09:42.292Z,14.10
2018-02-24T04:12:10.274Z,22.80
2018-02-24T04:14:38.234Z,15.70
2018-02-24T04:17:06.233Z,16.50
2018-02-24T04:19:34.242Z,15.27
2018-02-24T04:22:02.344Z,18.90
2018-02-24T04:24:30.407Z,19.60
2018-02-24T04:26:58.360Z,17.30
2018-02-24T04:29:26.398Z,19.40
2018-02-24T04:31:54.418Z,15.80
2018-02-24T04:34:22.377Z,13.30
2018-02-24T04:36:50.368Z,8.80
2018-02-24T04:39:18.355Z,7.50
2018-02-24T04:41:46.354Z,8.23
2018-02-24T04:44:14.343Z,8.30
2018-02-24T04:46:42.378Z,8.43
2018-02-24T04:49:10.335Z,7.70
2018-02-24T04:51:38.322Z,8.40
2018-02-24T04:54:06.354Z,9.60
2018-02-24T04:56:34.385Z,9.23
2018-02-24T04:59:02.758Z,9.43
2018-02-24T05:01:30.753Z,10.43
2018-02-24T05:03:58.763Z,10.73
2018-02-24T05:06:26.743Z,8.23
2018-02-24T05:08:54.738Z,9.13
2018-02-24T05:11:22.731Z,7.27
2018-02-24T05:13:50.700Z,11.90
2018-02-24T05:16:18.678Z,17.90
2018-02-24T05:18:46.629Z,13.40
2018-02-24T05:21:14.726Z,10.60
2018-02-24T05:23:42.642Z,11.50
2018-02-24T05:26:10.626Z,19.13
2018-02-24T05:28:38.655Z,22.30
2018-02-24T05:31:06.630Z,13.63
2018-02-24T05:33:34.628Z,21.80
2018-02-24T05:36:02.707Z,19.47
2018-02-24T05:38:30.683Z,14.97
2018-02-24T05:40:58.692Z,12.47
2018-02-24T05:43:26.723Z,14.10
2018-02-24T05:45:54.694Z,16.83
2018-02-24T05:48:22.728Z,17.13
2018-02-24T05:50:50.706Z,18.20
2018-02-24T05:53:18.633Z,17.80
2018-02-24T05:55:46.622Z,17.13
2018-02-24T05:58:14.585Z,18.70
2018-02-24T06:00:42.904Z,13.13
2018-02-24T06:03:10.888Z,23.90
2018-02-24T06:05:39.107Z,20.43
2018-02-24T06:08:07.141Z,12.27
2018-02-24T06:10:35.106Z,13.00
2018-02-24T06:13:03.107Z,10.60
2018-02-24T06:15:31.066Z,9.67
2018-02-24T06:17:59.055Z,8.20
2018-02-24T06:20:27.007Z,18.40
2018-02-24T06:22:55.022Z,24.40
2018-02-24T06:25:23.069Z,15.37
2018-02-24T06:27:51.099Z,11.03
2018-02-24T06:30:19.144Z,11.20
2018-02-24T06:32:48.029Z,11.87
2018-02-24T06:35:15.966Z,11.33
2018-02-24T06:37:44.328Z,11.83
2018-02-24T06:40:12.397Z,12.20
2018-02-24T06:42:40.384Z,13.40
2018-02-24T06:45:09.366Z,13.80
2018-02-24T06:47:37.364Z,17.03
2018-02-24T06:50:05.898Z,12.60
2018-02-24T06:52:33.972Z,17.87
2018-02-24T06:55:01.925Z,26.37
2018-02-24T06:57:29.922Z,26.83
2018-02-24T06:59:57.911Z,13.60
2018-02-24T07:02:26.315Z,15.23
2018-02-24T07:04:54.345Z,27.40
2018-02-24T07:07:23.416Z,25.10
2018-02-24T07:09:53.310Z,20.90
2018-02-24T07:12:21.371Z,28.33
2018-02-24T07:14:49.377Z,20.10
2018-02-24T07:17:17.347Z,15.33
2018-02-24T07:19:45.362Z,11.20
2018-02-24T07:22:13.410Z,27.77
2018-02-24T07:24:41.465Z,23.23
2018-02-24T07:27:10.459Z,49.83
2018-02-24T07:32:13.059Z,14.17
2018-02-24T07:34:41.008Z,35.30
2018-02-24T07:37:11.735Z,13.60
2018-02-24T07:39:39.737Z,9.23
2018-02-24T07:42:08.522Z,7.80
2018-02-24T07:44:36.753Z,11.17
2018-02-24T07:47:08.456Z,8.93
2018-02-24T07:49:36.491Z,15.03
2018-02-24T07:52:04.458Z,16.20
2018-02-24T07:54:32.491Z,10.63
2018-02-24T07:57:00.430Z,19.00
2018-02-24T07:59:28.438Z,14.30
2018-02-24T08:01:56.447Z,10.87
2018-02-24T08:04:24.993Z,17.90
2018-02-24T08:06:52.966Z,13.20
2018-02-24T08:09:21.891Z,14.87
2018-02-24T08:11:50.711Z,14.40
2018-02-24T08:14:18.746Z,17.07
2018-02-24T08:16:46.775Z,8.90
2018-02-24T08:19:14.753Z,48.80
2018-02-24T08:21:42.810Z,20.43
2018-02-24T08:24:10.788Z,11.93
2018-02-24T08:26:38.920Z,9.13
2018-02-24T08:29:07.214Z,19.03
2018-02-24T08:31:35.794Z,12.03
2018-02-24T08:34:04.483Z,11.27
2018-02-24T08:36:32.848Z,11.30
2018-02-24T08:39:01.437Z,12.37
2018-02-24T08:41:30.022Z,13.57
2018-02-24T08:43:58.705Z,13.67
2018-02-24T08:46:27.290Z,13.83
2018-02-24T08:48:55.671Z,12.93
2018-02-24T08:51:24.458Z,13.20
2018-02-24T08:53:52.735Z,12.67
2018-02-24T08:56:21.212Z,12.90
2018-02-24T08:58:49.745Z,11.13
2018-02-24T09:01:18.322Z,11.10
2018-02-24T09:03:46.653Z,11.83
2018-02-24T09:06:15.233Z,9.70
2018-02-24T09:08:43.529Z,10.63
2018-02-24T09:11:11.770Z,12.43
2018-02-24T09:13:40.154Z,12.43
2018-02-24T09:16:08.646Z,12.37
2018-02-24T09:18:37.330Z,13.17
2018-02-24T09:21:05.978Z,13.30
2018-02-24T09:23:34.614Z,15.67
2018-02-24T09:26:02.977Z,14.03
2018-02-24T09:28:31.561Z,13.37
2018-02-24T09:30:59.481Z,11.70
2018-02-24T09:33:27.379Z,11.80
2018-02-24T09:35:55.383Z,13.50
2018-02-24T09:38:23.746Z,10.70
2018-02-24T09:40:51.724Z,14.20
2018-02-24T09:43:19.718Z,15.80
2018-02-24T09:45:48.269Z,15.63
2018-02-24T09:48:16.287Z,13.90
2018-02-24T09:50:44.367Z,13.80
2018-02-24T09:53:12.884Z,12.50
2018-02-24T09:55:40.847Z,13.70
2018-02-24T09:58:09.077Z,11.80
2018-02-24T10:00:37.007Z,14.17
2018-02-24T10:03:04.982Z,14.63
2018-02-24T10:05:32.982Z,20.30
2018-02-24T10:08:01.334Z,21.83
2018-02-24T10:10:29.731Z,17.67
2018-02-24T10:12:58.067Z,14.93
2018-02-24T10:15:26.594Z,15.10
2018-02-24T10:17:54.940Z,14.37
2018-02-24T10:20:23.407Z,14.03
2018-02-24T10:22:51.461Z,13.60
2018-02-24T10:25:19.871Z,13.70
2018-02-24T10:27:48.550Z,15.50
2018-02-24T10:30:17.323Z,15.40
2018-02-24T10:32:45.613Z,23.30
2018-02-24T10:35:14.078Z,15.40
2018-02-24T10:37:42.478Z,21.83
2018-02-24T10:40:10.934Z,26.50
2018-02-24T10:42:39.215Z,29.63
2018-02-24T10:45:07.601Z,18.83
2018-02-24T10:47:36.054Z,29.73
2018-02-24T10:50:04.637Z,33.70
2018-02-24T10:52:33.343Z,24.97
2018-02-24T10:55:01.921Z,22.20
2018-02-24T10:57:30.708Z,19.27
2018-02-24T10:59:59.403Z,29.60
2018-02-24T11:02:28.285Z,23.80
2018-02-24T11:04:56.258Z,19.73
2018-02-24T11:07:24.946Z,17.20
2018-02-24T11:09:53.454Z,18.90
2018-02-24T11:12:21.802Z,20.20
2018-02-24T11:14:50.286Z,18.53
2018-02-24T11:17:19.220Z,27.93
2018-02-24T11:19:47.854Z,19.77
2018-02-24T11:22:16.543Z,23.00
2018-02-24T11:24:45.026Z,20.20
2018-02-24T11:27:13.028Z,17.97
2018-02-24T11:29:41.569Z,19.93
2018-02-24T11:32:10.070Z,22.67
2018-02-24T11:34:38.737Z,18.80
2018-02-24T11:37:07.221Z,15.60
2018-02-24T11:39:41.063Z,19.40
2018-02-24T11:42:09.712Z,21.07
2018-02-24T11:44:37.887Z,16.77
2018-02-24T11:47:06.259Z,19.20
2018-02-24T11:49:34.757Z,16.70
2018-02-24T11:52:03.631Z,19.43
2018-02-24T11:54:32.007Z,15.40
2018-02-24T11:57:00.343Z,13.90
2018-02-24T11:59:28.766Z,14.17
2018-02-24T12:01:57.349Z,13.30
2018-02-24T12:04:25.622Z,36.73
2018-02-24T12:06:54.102Z,20.80
2018-02-24T12:09:22.801Z,17.00
2018-02-24T12:11:51.586Z,12.30
2018-02-24T12:14:19.948Z,13.93
2018-02-24T12:16:48.434Z,15.23
2018-02-24T12:19:16.869Z,14.10
2018-02-24T12:21:45.186Z,27.87
2018-02-24T12:24:13.770Z,32.27
2018-02-24T12:26:41.938Z,16.70
2018-02-24T12:29:10.429Z,13.93
2018-02-24T12:31:39.237Z,16.67
2018-02-24T12:34:07.694Z,13.83
2018-02-24T12:36:36.155Z,19.47
2018-02-24T12:39:04.738Z,16.37
2018-02-24T12:41:33.151Z,13.90
2018-02-24T12:44:01.720Z,12.23
2018-02-24T12:46:30.094Z,12.07
2018-02-24T12:48:58.051Z,16.87
2018-02-24T12:51:25.970Z,11.27
2018-02-24T12:53:54.035Z,12.87
2018-02-24T12:56:22.008Z,16.07
2018-02-24T12:58:50.021Z,13.70
2018-02-24T13:01:17.934Z,15.53
2018-02-24T13:03:45.899Z,27.23
2018-02-24T13:06:13.861Z,18.10
2018-02-24T13:08:41.786Z,25.80
2018-02-24T13:11:09.781Z,15.90
2018-02-24T13:13:38.059Z,15.80
2018-02-24T13:16:05.988Z,16.80
2018-02-24T13:18:33.945Z,11.80
2018-02-24T13:21:01.934Z,19.87
2018-02-24T13:23:30.753Z,11.70
2018-02-24T13:25:59.437Z,18.03
2018-02-24T13:28:28.017Z,17.17
2018-02-24T13:30:56.394Z,10.60
2018-02-24T13:33:24.874Z,9.03
2018-02-24T13:35:53.234Z,9.23
2018-02-24T13:38:21.685Z,10.57
2018-02-24T13:40:50.538Z,9.47
2018-02-24T13:43:19.002Z,10.20
2018-02-24T13:45:47.668Z,10.13
2018-02-24T13:48:16.333Z,10.80
2018-02-24T13:50:44.850Z,14.47
2018-02-24T13:53:13.347Z,12.97
2018-02-24T13:55:41.810Z,15.40
2018-02-24T13:58:10.293Z,11.70
2018-02-24T14:00:38.857Z,17.70
2018-02-24T14:03:07.444Z,20.10
2018-02-24T14:05:36.247Z,21.07
2018-02-24T14:08:04.607Z,23.03
2018-02-24T14:10:32.798Z,11.80
2018-02-24T14:13:01.279Z,19.30
2018-02-24T14:15:30.115Z,22.13
2018-02-24T14:17:58.750Z,11.20
2018-02-24T14:20:27.234Z,19.00
2018-02-24T14:22:55.719Z,10.13
2018-02-24T14:25:24.398Z,13.57
2018-02-24T14:27:52.979Z,10.47
2018-02-24T14:30:21.771Z,13.93
2018-02-24T14:32:50.229Z,15.50
2018-02-24T14:35:18.943Z,8.10
2018-02-24T14:37:47.415Z,18.83
2018-02-24T14:40:15.607Z,19.40
2018-02-24T14:42:43.555Z,20.63
2018-02-24T14:45:11.523Z,14.40
2018-02-24T14:47:39.465Z,16.13
2018-02-24T14:50:07.502Z,16.00
2018-02-24T14:52:35.482Z,12.83
2018-02-24T14:55:03.458Z,16.17
2018-02-24T14:57:31.462Z,12.53
2018-02-24T14:59:59.453Z,10.40
2018-02-24T15:02:27.445Z,8.90
2018-02-24T15:04:55.387Z,9.17
2018-02-24T15:07:23.391Z,8.50
2018-02-24T15:09:51.326Z,9.30
2018-02-24T15:12:19.298Z,12.67
2018-02-24T15:14:47.362Z,15.13
2018-02-24T15:17:15.730Z,16.97
2018-02-24T15:19:43.713Z,12.90
2018-02-24T15:22:11.817Z,11.27
2018-02-24T15:24:39.843Z,10.37
2018-02-24T15:27:07.808Z,11.60
2018-02-24T15:29:35.772Z,6.87
2018-02-24T15:32:03.702Z,11.40
2018-02-24T15:34:31.662Z,9.67
2018-02-24T15:36:59.698Z,11.00
2018-02-24T15:39:27.710Z,7.97
2018-02-24T15:41:55.742Z,10.90
2018-02-24T15:44:23.729Z,9.27
2018-02-24T15:46:51.786Z,10.13
2018-02-24T15:49:19.793Z,9.90
2018-02-24T15:51:48.913Z,12.53
2018-02-24T15:54:16.922Z,23.37
2018-02-24T15:56:44.998Z,25.93
2018-02-24T15:59:13.031Z,13.50
2018-02-24T16:01:41.103Z,17.47
2018-02-24T16:04:09.126Z,29.60
2018-02-24T16:06:37.093Z,17.13
2018-02-24T16:09:05.030Z,16.80
2018-02-24T16:11:32.994Z,16.97
2018-02-24T16:14:01.012Z,16.47
2018-02-24T16:16:29.121Z,24.20
2018-02-24T16:18:57.595Z,20.30
2018-02-24T16:21:25.585Z,10.17
2018-02-24T16:23:53.549Z,11.80
2018-02-24T16:26:21.691Z,12.20
2018-02-24T16:28:49.693Z,10.30
2018-02-24T16:31:17.674Z,9.90
2018-02-24T16:33:45.514Z,8.57
2018-02-24T16:36:13.521Z,9.00
2018-02-24T16:38:41.442Z,25.00
2018-02-24T16:41:09.325Z,15.70
2018-02-24T16:43:37.292Z,17.07
2018-02-24T16:46:05.321Z,19.80
2018-02-24T16:48:33.289Z,26.90
2018-02-24T16:51:01.306Z,25.23
2018-02-24T16:53:29.350Z,27.07
2018-02-24T16:55:57.308Z,16.40
2018-02-24T16:58:25.440Z,17.20
2018-02-24T17:00:53.455Z,23.30
2018-02-24T17:03:21.469Z,23.73
2018-02-24T17:05:49.458Z,24.50
2018-02-24T17:08:17.479Z,16.47
2018-02-24T17:10:45.441Z,15.20
2018-02-24T17:13:13.346Z,15.33
2018-02-24T17:15:41.361Z,19.50
2018-02-24T17:21:41.732Z,41.30
2018-02-24T17:24:09.769Z,29.20
2018-02-24T17:26:37.782Z,20.83
2018-02-24T17:29:05.809Z,38.93
2018-02-24T17:31:33.923Z,25.43
2018-02-24T17:34:01.958Z,32.33
2018-02-24T17:36:29.926Z,25.20
2018-02-24T17:38:57.974Z,31.10
2018-02-24T17:41:25.989Z,32.23
2018-02-24T17:43:54.064Z,24.80
2018-02-24T17:46:22.111Z,15.83
2018-02-24T17:48:50.116Z,21.13
2018-02-24T17:51:18.120Z,35.77
2018-02-24T17:53:50.015Z,35.73
2018-02-24T17:56:21.326Z,39.93
2018-02-24T17:58:50.754Z,31.40
2018-02-24T18:01:19.352Z,29.13
2018-02-24T18:03:48.471Z,27.87
2018-02-24T18:06:16.484Z,22.40
2018-02-24T18:08:44.474Z,18.40
2018-02-24T18:11:12.452Z,20.80
2018-02-24T18:13:40.516Z,24.30
2018-02-24T18:16:08.522Z,26.63
2018-02-24T18:18:36.518Z,22.43
2018-02-24T18:21:04.490Z,18.47
2018-02-24T18:23:32.828Z,16.27
2018-02-24T18:26:00.833Z,16.43
2018-02-24T18:28:28.762Z,23.37
2018-02-24T18:30:56.824Z,16.30
2018-02-24T18:33:24.817Z,15.27
2018-02-24T18:35:52.697Z,13.70
2018-02-24T18:38:20.745Z,14.87
2018-02-24T18:40:48.667Z,13.07
2018-02-24T18:43:16.722Z,14.50
2018-02-24T18:45:44.729Z,17.40
2018-02-24T18:48:12.820Z,15.20
2018-02-24T18:50:40.789Z,15.73
2018-02-24T18:53:08.797Z,15.13
2018-02-24T18:55:36.718Z,12.27
2018-02-24T18:58:04.657Z,15.60
2018-02-24T19:00:32.597Z,18.37
2018-02-24T19:03:00.644Z,18.90
2018-02-24T19:05:28.655Z,17.90
2018-02-24T19:07:56.598Z,18.37
2018-02-24T19:10:24.586Z,18.50
2018-02-24T19:12:52.611Z,14.60
2018-02-24T19:15:20.618Z,15.63
2018-02-24T19:17:48.625Z,17.87
2018-02-24T19:20:16.626Z,21.77
2018-02-24T19:22:44.675Z,24.50
2018-02-24T19:25:13.161Z,31.10
2018-02-24T19:27:41.104Z,25.67
2018-02-24T19:30:09.272Z,30.33
2018-02-24T19:32:37.234Z,30.03
2018-02-24T19:35:05.197Z,39.80
2018-02-24T19:37:33.176Z,62.37
2018-02-24T19:40:01.162Z,48.47
2018-02-24T19:42:29.127Z,29.73
2018-02-24T19:44:57.064Z,31.10
2018-02-24T19:47:25.032Z,27.70
2018-02-24T19:49:53.011Z,29.30
2018-02-24T19:52:21.490Z,26.00
2018-02-24T19:54:49.463Z,34.10
2018-02-24T19:57:17.504Z,39.43
2018-02-24T19:59:45.478Z,32.97
2018-02-24T20:02:14.365Z,25.53
2018-02-24T20:04:42.927Z,25.40
2018-02-24T20:07:10.913Z,27.40
2018-02-24T20:09:38.883Z,28.23
2018-02-24T20:12:06.814Z,41.10
2018-02-24T20:14:34.766Z,28.43
2018-02-24T20:17:03.426Z,40.90
2018-02-24T20:19:31.485Z,33.57
2018-02-24T20:21:59.413Z,40.83
2018-02-24T20:24:27.398Z,26.00
2018-02-24T20:26:55.935Z,28.40
2018-02-24T20:29:23.912Z,27.97
2018-02-24T20:31:51.918Z,15.70
2018-02-24T20:34:19.890Z,19.30
2018-02-24T20:36:47.913Z,15.40
2018-02-24T20:39:16.360Z,24.57
2018-02-24T20:41:44.407Z,25.50
2018-02-24T20:44:12.328Z,19.87
2018-02-24T20:46:40.279Z,19.33
2018-02-24T20:49:08.321Z,18.13
2018-02-24T20:51:36.347Z,23.07
2018-02-24T20:54:04.318Z,19.63
2018-02-24T20:56:32.302Z,20.67
2018-02-24T20:59:00.268Z,20.67
2018-02-24T21:01:28.279Z,19.10
2018-02-24T21:03:57.261Z,21.83
2018-02-24T21:06:25.298Z,21.23
2018-02-24T21:08:54.177Z,19.57
2018-02-24T21:11:22.138Z,19.97
2018-02-24T21:13:50.218Z,16.90
2018-02-24T21:16:18.597Z,16.70
2018-02-24T21:18:46.884Z,17.87
2018-02-24T21:21:17.504Z,17.57
2018-02-24T21:23:46.912Z,17.23
2018-02-24T21:26:16.088Z,18.50
2018-02-24T21:28:45.385Z,17.73
2018-02-24T21:33:46.556Z,17.50
2018-02-24T21:36:15.020Z,24.10
2018-02-24T21:38:43.269Z,35.60
2018-02-24T21:41:11.904Z,28.00
2018-02-24T21:43:44.592Z,26.97
2018-02-24T21:46:14.784Z,30.33
2018-02-24T21:48:43.532Z,26.00
2018-02-24T21:51:13.077Z,29.90
2018-02-24T21:53:41.894Z,24.87
2018-02-24T21:56:11.574Z,21.93
2018-02-24T21:58:40.196Z,18.60
2018-02-24T22:01:08.786Z,17.70
2018-02-24T22:03:37.346Z,16.10
2018-02-24T22:06:05.628Z,17.93
2018-02-24T22:08:36.433Z,15.33
2018-02-24T22:11:05.151Z,14.03
2018-02-24T22:13:34.858Z,13.50
2018-02-24T22:16:03.226Z,13.30
2018-02-24T22:18:31.826Z,13.50
2018-02-24T22:21:00.576Z,11.83
2018-02-24T22:23:29.364Z,11.70
2018-02-24T22:25:58.169Z,10.30
2018-02-24T22:28:26.583Z,10.27
2018-02-24T22:30:54.954Z,10.50
2018-02-24T22:33:22.897Z,13.40
2018-02-24T22:35:51.560Z,11.93
2018-02-24T22:38:19.573Z,13.13
2018-02-24T22:40:48.039Z,12.30
2018-02-24T22:43:16.217Z,9.03
2018-02-24T22:45:44.390Z,11.67
2018-02-24T22:48:18.020Z,11.90
2018-02-24T22:50:46.565Z,12.33
2018-02-24T22:53:14.632Z,14.40
2018-02-24T22:55:43.301Z,16.93
2018-02-24T22:58:11.434Z,23.17
2018-02-24T23:00:39.543Z,20.90
2018-02-24T23:03:07.527Z,23.03
2018-02-24T23:05:35.461Z,17.17
2018-02-24T23:08:03.429Z,14.20
2018-02-24T23:10:31.362Z,16.00
2018-02-24T23:12:59.249Z,15.20
2018-02-24T23:15:27.181Z,13.07
2018-02-24T23:17:55.102Z,15.30
2018-02-24T23:20:23.038Z,15.40
2018-02-24T23:22:50.963Z,14.93
2018-02-24T23:25:18.883Z,16.90
2018-02-24T23:27:46.802Z,16.33
2018-02-24T23:30:14.737Z,16.17
2018-02-24T23:32:43.250Z,15.37
2018-02-24T23:35:11.183Z,15.80
2018-02-24T23:37:39.132Z,15.73
2018-02-24T23:40:07.116Z,17.17
2018-02-24T23:42:35.063Z,16.97
2018-02-24T23:45:03.088Z,14.80
2018-02-24T23:47:31.062Z,14.57
2018-02-24T23:49:59.031Z,14.60
2018-02-24T23:52:26.906Z,15.73
2018-02-24T23:54:54.850Z,16.80
2018-02-24T23:57:22.890Z,18.67
2018-02-24T23:59:50.769Z,17.77
